createdAt,value
2022-11-24T00:02:09.212Z,99454.19
2022-11-24T00:04:35.979Z,99456.97
2022-11-24T00:07:02.684Z,99459.63
2022-11-24T00:09:29.176Z,99451.63
2022-11-24T00:11:56.989Z,99454.13
2022-11-24T00:14:23.447Z,99461.06
2022-11-24T00:16:50.077Z,99461.75
2022-11-24T00:19:19.731Z,99456.63
2022-11-24T00:21:46.555Z,99452.09
2022-11-24T00:24:13.044Z,99461.75
2022-11-24T00:26:39.557Z,99457.78
2022-11-24T00:29:07.803Z,99454.44
2022-11-24T00:31:36.050Z,99465.09
2022-11-24T00:34:04.853Z,99446.03
2022-11-24T00:36:33.207Z,99464.44
2022-11-24T00:39:00.729Z,99446.19
2022-11-24T00:41:28.462Z,99464.22
2022-11-24T00:43:55.548Z,99463.00
2022-11-24T00:46:23.977Z,99472.50
2022-11-24T00:48:51.019Z,99472.84
2022-11-24T00:51:18.853Z,99472.03
2022-11-24T00:53:45.368Z,99469.06
2022-11-24T00:56:12.072Z,99478.53
2022-11-24T00:58:38.717Z,99473.91
2022-11-24T01:01:07.694Z,99473.91
2022-11-24T01:03:35.628Z,99480.91
2022-11-24T01:06:03.602Z,99486.78
2022-11-24T01:08:30.068Z,99478.63
2022-11-24T01:11:06.793Z,99494.28
2022-11-24T01:13:33.309Z,99496.75
2022-11-24T01:15:59.861Z,99505.91
2022-11-24T01:18:26.437Z,99506.91
2022-11-24T01:20:54.370Z,99512.69
2022-11-24T01:23:20.873Z,99509.88
2022-11-24T01:25:47.330Z,99507.38
2022-11-24T01:28:13.837Z,99505.91
2022-11-24T01:30:40.353Z,99501.94
2022-11-24T01:33:06.979Z,99505.59
2022-11-24T01:35:33.502Z,99505.28
2022-11-24T01:38:01.321Z,99500.63
2022-11-24T01:40:27.774Z,99495.81
2022-11-24T01:42:54.246Z,99505.38
2022-11-24T01:45:31.301Z,99505.25
2022-11-24T01:47:58.905Z,99507.59
2022-11-24T01:50:25.663Z,99506.97
2022-11-24T01:52:55.138Z,99510.31
2022-11-24T01:55:27.489Z,99505.53
2022-11-24T01:57:58.718Z,99515.34
2022-11-24T02:00:25.536Z,99507.16
2022-11-24T02:02:53.274Z,99520.69
2022-11-24T02:05:24.313Z,99516.16
2022-11-24T02:07:53.865Z,99510.16
2022-11-24T02:10:21.605Z,99525.81
2022-11-24T02:12:52.162Z,99523.34
2022-11-24T02:15:19.881Z,99529.31
2022-11-24T02:17:46.573Z,99534.28
2022-11-24T02:20:14.245Z,99539.28
2022-11-24T02:22:48.538Z,99532.78
2022-11-24T02:25:25.218Z,99542.75
2022-11-24T02:27:54.461Z,99539.06
2022-11-24T02:30:21.234Z,99539.06
2022-11-24T02:32:47.710Z,99527.13
2022-11-24T02:35:14.651Z,99540.41
2022-11-24T02:37:41.186Z,99532.78
2022-11-24T02:40:09.218Z,99542.59
2022-11-24T02:42:39.318Z,99546.59
2022-11-24T02:45:09.606Z,99541.81
2022-11-24T02:47:36.065Z,99543.81
2022-11-24T02:50:02.577Z,99541.50
2022-11-24T02:52:29.074Z,99548.66
2022-11-24T02:54:55.549Z,99533.72
2022-11-24T02:57:22.499Z,99544.38
2022-11-24T02:59:48.975Z,99539.53
2022-11-24T03:02:16.820Z,99540.53
2022-11-24T03:04:43.327Z,99551.84
2022-11-24T03:07:09.980Z,99554.19
2022-11-24T03:09:36.501Z,99547.53
2022-11-24T03:12:03.092Z,99557.03
2022-11-24T03:14:29.606Z,99562.84
2022-11-24T03:16:56.036Z,99550.19
2022-11-24T03:19:24.100Z,99560.19
2022-11-24T03:21:50.620Z,99566.84
2022-11-24T03:24:17.115Z,99565.81
2022-11-24T03:26:43.555Z,99562.31
2022-11-24T03:29:10.169Z,99556.84
2022-11-24T03:31:36.714Z,99560.81
2022-11-24T03:34:03.282Z,99554.19
2022-11-24T03:36:31.123Z,99555.84
2022-11-24T03:38:57.574Z,99573.97
2022-11-24T03:41:24.041Z,99563.31
2022-11-24T03:43:50.589Z,99563.50
2022-11-24T03:46:17.630Z,99572.63
2022-11-24T03:48:44.156Z,99576.97
2022-11-24T03:51:11.212Z,99585.81
2022-11-24T03:53:39.123Z,99585.28
2022-11-24T03:56:06.044Z,99575.66
2022-11-24T03:58:32.696Z,99589.09
2022-11-24T04:00:59.336Z,99599.59
2022-11-24T04:03:26.348Z,99600.75
2022-11-24T04:05:52.830Z,99602.75
2022-11-24T04:08:19.707Z,99597.91
2022-11-24T04:10:51.639Z,99582.63
2022-11-24T04:13:20.001Z,99583.94
2022-11-24T04:15:46.492Z,99603.06
2022-11-24T04:18:13.253Z,99600.06
2022-11-24T04:20:40.867Z,99604.72
2022-11-24T04:23:08.012Z,99599.03
2022-11-24T04:25:34.934Z,99604.84
2022-11-24T04:28:03.166Z,99604.00
2022-11-24T04:30:29.925Z,99597.16
2022-11-24T04:32:56.415Z,99593.97
2022-11-24T04:35:23.011Z,99602.47
2022-11-24T04:37:49.481Z,99587.47
2022-11-24T04:40:16.853Z,99606.78
2022-11-24T04:42:43.450Z,99603.28
2022-11-24T04:45:11.717Z,99614.88
2022-11-24T04:47:38.194Z,99616.19
2022-11-24T04:50:05.555Z,99615.53
2022-11-24T04:52:32.124Z,99610.19
2022-11-24T04:54:58.668Z,99626.63
2022-11-24T04:57:26.178Z,99625.66
2022-11-24T04:59:53.387Z,99618.81
2022-11-24T05:02:21.856Z,99623.47
2022-11-24T05:04:48.728Z,99631.75
2022-11-24T05:07:19.157Z,99643.06
2022-11-24T05:09:58.784Z,99642.63
2022-11-24T05:12:27.275Z,99634.16
2022-11-24T05:14:53.802Z,99652.56
2022-11-24T05:17:21.676Z,99649.28
2022-11-24T05:19:48.131Z,99652.63
2022-11-24T05:22:14.573Z,99666.44
2022-11-24T05:24:41.048Z,99673.44
2022-11-24T05:27:07.509Z,99669.44
2022-11-24T05:29:33.991Z,99678.94
2022-11-24T05:32:00.465Z,99680.41
2022-11-24T05:34:28.301Z,99683.09
2022-11-24T05:36:54.758Z,99675.78
2022-11-24T05:39:21.523Z,99695.09
2022-11-24T05:41:47.951Z,99689.09
2022-11-24T05:44:14.429Z,99692.44
2022-11-24T05:46:40.970Z,99693.41
2022-11-24T05:49:07.472Z,99683.78
2022-11-24T05:51:35.255Z,99689.47
2022-11-24T05:54:01.707Z,99706.97
2022-11-24T05:56:28.185Z,99704.47
2022-11-24T05:58:54.627Z,99710.47
2022-11-24T06:01:21.176Z,99711.81
2022-11-24T06:03:47.712Z,99705.78
2022-11-24T06:06:14.232Z,99704.13
2022-11-24T06:08:42.076Z,99706.97
2022-11-24T06:11:09.199Z,99697.66
2022-11-24T06:13:35.724Z,99680.88
2022-11-24T06:16:02.512Z,99710.00
2022-11-24T06:18:29.020Z,99715.69
2022-11-24T06:21:10.339Z,99701.25
2022-11-24T06:23:37.911Z,99724.41
2022-11-24T06:26:06.253Z,99743.38
2022-11-24T06:28:32.797Z,99743.22
2022-11-24T06:31:02.828Z,99743.88
2022-11-24T06:33:33.080Z,99745.88
2022-11-24T06:36:01.112Z,99744.56
2022-11-24T06:38:27.588Z,99739.56
2022-11-24T06:40:58.776Z,99740.03
2022-11-24T06:43:27.964Z,99732.56
2022-11-24T06:45:54.394Z,99741.88
2022-11-24T06:48:21.173Z,99746.56
2022-11-24T06:50:47.673Z,99746.72
2022-11-24T06:53:14.167Z,99760.38
2022-11-24T06:55:41.432Z,99763.56
2022-11-24T06:58:08.397Z,99763.88
2022-11-24T07:00:36.408Z,99769.22
2022-11-24T07:03:12.785Z,99771.22
2022-11-24T07:05:42.010Z,99758.25
2022-11-24T07:08:11.980Z,99777.53
2022-11-24T07:10:41.318Z,99790.22
2022-11-24T07:13:08.404Z,99794.53
2022-11-24T07:15:36.826Z,99793.84
2022-11-24T07:18:03.478Z,99802.66
2022-11-24T07:20:29.985Z,99797.50
2022-11-24T07:22:56.585Z,99804.16
2022-11-24T07:25:25.422Z,99816.66
2022-11-24T07:27:55.903Z,99819.97
2022-11-24T07:30:22.438Z,99819.47
2022-11-24T07:32:50.314Z,99827.13
2022-11-24T07:35:16.810Z,99837.16
2022-11-24T07:37:43.366Z,99840.63
2022-11-24T07:40:11.286Z,99846.47
2022-11-24T07:42:37.738Z,99857.78
2022-11-24T07:45:04.947Z,99853.97
2022-11-24T07:47:31.390Z,99854.78
2022-11-24T07:49:59.204Z,99862.16
2022-11-24T07:52:25.710Z,99864.63
2022-11-24T07:54:52.269Z,99871.78
2022-11-24T07:57:18.881Z,99871.97
2022-11-24T07:59:45.322Z,99860.50
2022-11-24T08:02:13.005Z,99894.47
2022-11-24T08:04:39.691Z,99883.34
2022-11-24T08:07:07.551Z,99894.00
2022-11-24T08:09:34.062Z,99896.16
2022-11-24T08:12:00.563Z,99916.31
2022-11-24T08:14:27.082Z,99908.50
2022-11-24T08:16:53.631Z,99921.34
2022-11-24T08:19:21.690Z,99922.16
2022-11-24T08:21:48.152Z,99922.81
2022-11-24T08:24:16.007Z,99919.69
2022-11-24T08:26:43.288Z,99933.66
2022-11-24T08:29:10.383Z,99935.19
2022-11-24T08:31:39.059Z,99944.84
2022-11-24T08:34:06.577Z,99940.50
2022-11-24T08:36:34.198Z,99949.59
2022-11-24T08:39:01.137Z,99952.63
2022-11-24T08:41:30.100Z,99962.16
2022-11-24T08:43:56.590Z,99950.56
2022-11-24T08:46:23.294Z,99964.31
2022-11-24T08:48:50.923Z,99951.91
2022-11-24T08:51:19.721Z,99974.72
2022-11-24T08:53:46.612Z,99980.06
2022-11-24T08:56:13.727Z,99978.13
2022-11-24T08:58:41.985Z,99981.63
2022-11-24T09:01:10.985Z,99991.84
2022-11-24T09:03:38.435Z,99983.34
2022-11-24T09:06:05.823Z,100002.78
2022-11-24T09:08:33.483Z,100004.97
2022-11-24T09:11:00.891Z,99995.28
2022-11-24T09:13:28.027Z,99991.44
2022-11-24T09:15:57.282Z,100004.25
2022-11-24T09:18:27.571Z,100003.69
2022-11-24T09:21:06.229Z,100007.66
2022-11-24T09:23:32.835Z,100018.50
2022-11-24T09:26:03.887Z,100019.03
2022-11-24T09:28:30.379Z,100017.56
2022-11-24T09:31:01.923Z,100029.38
2022-11-24T09:33:28.683Z,100035.06
2022-11-24T09:35:55.332Z,100039.34
2022-11-24T09:38:21.776Z,100036.72
2022-11-24T09:40:48.492Z,100042.66
2022-11-24T09:43:22.052Z,100054.03
2022-11-24T09:46:05.636Z,100036.28
2022-11-24T09:48:39.056Z,100046.97
2022-11-24T09:51:10.015Z,100046.97
2022-11-24T09:53:41.038Z,100035.97
2022-11-24T09:56:18.539Z,100042.03
2022-11-24T09:58:48.430Z,100050.81
2022-11-24T10:01:17.156Z,100055.63
2022-11-24T10:03:48.378Z,100067.81
2022-11-24T10:06:24.469Z,100057.44
2022-11-24T10:09:29.589Z,100067.22
2022-11-24T10:12:06.168Z,100060.84
2022-11-24T10:15:16.894Z,100069.56
2022-11-24T10:18:00.083Z,100075.81
2022-11-24T10:20:43.075Z,100074.78
2022-11-24T10:23:26.038Z,100073.66
2022-11-24T10:25:57.227Z,100083.50
2022-11-24T10:28:27.108Z,100090.63
2022-11-24T10:31:10.894Z,100080.53
2022-11-24T10:33:37.787Z,100075.13
2022-11-24T10:36:12.911Z,100087.09
2022-11-24T10:38:45.366Z,100089.78
2022-11-24T10:41:16.532Z,100087.06
2022-11-24T10:43:43.342Z,100096.00
2022-11-24T10:46:14.465Z,100095.75
2022-11-24T10:48:46.673Z,100098.81
2022-11-24T10:51:36.382Z,100078.66
2022-11-24T10:54:10.573Z,100084.56
2022-11-24T10:56:40.309Z,100099.63
2022-11-24T10:59:32.217Z,100106.81
2022-11-24T11:01:59.828Z,100100.66
2022-11-24T11:04:29.065Z,100105.50
2022-11-24T11:07:16.820Z,100104.16
2022-11-24T11:09:43.829Z,100090.81
2022-11-24T11:12:42.212Z,100093.03
2022-11-24T11:15:21.897Z,100102.34
2022-11-24T11:17:49.342Z,100105.50
2022-11-24T11:20:18.991Z,100097.78
2022-11-24T11:22:49.066Z,100114.34
2022-11-24T11:25:21.795Z,100114.97
2022-11-24T11:27:48.945Z,100124.53
2022-11-24T11:36:10.148Z,100118.88
2022-11-24T11:38:39.564Z,100105.09
2022-11-24T11:41:10.721Z,100127.66
2022-11-24T11:43:40.501Z,100114.25
2022-11-24T11:46:12.564Z,100132.75
2022-11-24T11:48:44.164Z,100124.69
2022-11-24T11:51:41.698Z,100104.31
2022-11-24T11:54:18.354Z,100120.03
2022-11-24T11:56:47.989Z,100124.00
2022-11-24T11:59:30.697Z,100115.59
2022-11-24T12:02:31.214Z,100124.38
2022-11-24T12:05:01.023Z,100112.56
2022-11-24T12:07:43.526Z,100124.22
2022-11-24T12:10:23.066Z,100125.25
2022-11-24T12:13:07.871Z,100121.78
2022-11-24T12:15:41.559Z,100123.00
2022-11-24T12:18:48.638Z,100126.97
2022-11-24T12:21:17.932Z,100126.56
2022-11-24T12:23:58.630Z,100116.97
2022-11-24T12:26:34.932Z,100116.41
2022-11-24T12:29:25.026Z,100118.19
2022-11-24T12:32:03.518Z,100111.63
2022-11-24T12:34:43.410Z,100114.66
2022-11-24T12:37:28.638Z,100111.22
2022-11-24T12:40:01.550Z,100100.63
2022-11-24T12:42:39.023Z,100106.09
2022-11-24T12:45:14.272Z,100110.44
2022-11-24T12:47:57.046Z,100101.03
2022-11-24T12:50:27.687Z,100112.91
2022-11-24T12:52:59.495Z,100110.41
2022-11-24T12:55:27.504Z,100107.28
2022-11-24T12:58:09.353Z,100116.97
2022-11-24T13:00:48.939Z,100115.75
2022-11-24T13:03:30.766Z,100114.94
2022-11-24T13:06:01.362Z,100118.69
2022-11-24T13:08:29.590Z,100121.72
2022-11-24T13:11:34.566Z,100121.03
2022-11-24T13:14:06.432Z,100120.38
2022-11-24T13:16:38.768Z,100113.75
2022-11-24T13:19:19.483Z,100126.69
2022-11-24T13:21:49.429Z,100125.78
2022-11-24T13:24:25.263Z,100131.78
2022-11-24T13:26:53.722Z,100134.94
2022-11-24T13:29:33.575Z,100123.66
2022-11-24T13:32:49.393Z,100131.56
2022-11-24T13:35:16.001Z,100148.59
2022-11-24T13:37:47.845Z,100146.25
2022-11-24T13:40:59.820Z,100148.22
2022-11-24T13:43:30.850Z,100148.59
2022-11-24T13:45:58.779Z,100144.34
2022-11-24T13:48:52.433Z,100145.56
2022-11-24T13:51:23.198Z,100140.84
2022-11-24T13:53:52.643Z,100114.25
2022-11-24T13:56:28.553Z,100145.22
2022-11-24T13:58:58.337Z,100142.81
2022-11-24T14:01:27.601Z,100146.59
2022-11-24T14:04:29.442Z,100135.06
2022-11-24T14:06:48.912Z,100146.59
2022-11-24T14:09:23.894Z,100140.78
2022-11-24T14:11:58.202Z,100144.13
2022-11-24T14:14:25.611Z,100144.13
2022-11-24T14:17:15.386Z,100143.28
2022-11-24T14:19:44.497Z,100139.94
2022-11-24T14:22:18.312Z,100145.16
2022-11-24T14:24:46.656Z,100150.88
2022-11-24T14:27:17.151Z,100141.00
2022-11-24T14:29:55.180Z,100130.69
2022-11-24T14:32:25.670Z,100120.84
2022-11-24T14:34:52.492Z,100120.38
2022-11-24T14:37:21.793Z,100096.69
2022-11-24T14:39:50.729Z,100106.66
2022-11-24T14:42:20.424Z,100114.03
2022-11-24T14:44:51.789Z,100106.03
2022-11-24T14:47:30.533Z,100123.88
2022-11-24T14:50:12.954Z,100094.84
2022-11-24T14:52:52.488Z,100082.84
2022-11-24T14:55:28.125Z,100130.59
2022-11-24T14:57:55.014Z,100132.63
2022-11-24T15:00:27.465Z,100129.34
2022-11-24T15:03:12.457Z,100101.38
2022-11-24T15:05:54.440Z,100140.94
2022-11-24T15:08:22.288Z,100147.13
2022-11-24T15:10:57.749Z,100154.47
2022-11-24T15:13:28.353Z,100163.69
2022-11-24T15:16:02.420Z,100162.69
2022-11-24T15:18:37.350Z,100158.03
2022-11-24T15:21:07.366Z,100157.38
2022-11-24T15:23:38.974Z,100163.41
2022-11-24T15:26:30.565Z,100152.06
2022-11-24T15:29:01.282Z,100152.38
2022-11-24T15:31:32.033Z,100146.91
2022-11-24T15:34:00.039Z,100154.59
2022-11-24T15:36:26.607Z,100152.75
2022-11-24T15:38:58.054Z,100153.59
2022-11-24T15:41:28.577Z,100145.59
2022-11-24T15:43:55.342Z,100152.59
2022-11-24T15:46:22.703Z,100152.59
2022-11-24T15:48:49.179Z,100146.25
2022-11-24T15:51:24.647Z,100162.78
2022-11-24T15:54:00.075Z,100165.13
2022-11-24T15:56:30.737Z,100159.63
2022-11-24T15:59:02.458Z,100169.28
2022-11-24T16:01:31.496Z,100171.13
2022-11-24T16:03:58.036Z,100170.13
2022-11-24T16:06:26.152Z,100185.81
2022-11-24T16:08:53.012Z,100192.31
2022-11-24T16:11:35.070Z,100173.75
2022-11-24T16:14:01.833Z,100184.28
2022-11-24T16:16:28.562Z,100192.63
2022-11-24T16:18:55.172Z,100197.63
2022-11-24T16:21:21.701Z,100195.28
2022-11-24T16:23:52.617Z,100203.09
2022-11-24T16:26:22.050Z,100201.06
2022-11-24T16:28:48.755Z,100203.88
2022-11-24T16:31:15.563Z,100201.38
2022-11-24T16:33:45.755Z,100188.66
2022-11-24T16:36:12.803Z,100175.75
2022-11-24T16:38:42.168Z,100213.19
2022-11-24T16:41:09.986Z,100205.19
2022-11-24T16:43:40.910Z,100204.31
2022-11-24T16:46:17.678Z,100199.63
2022-11-24T16:48:44.759Z,100200.28
2022-11-24T16:51:12.236Z,100196.59
2022-11-24T16:53:38.784Z,100204.25
2022-11-24T16:56:06.227Z,100197.06
2022-11-24T16:58:37.071Z,100197.25
2022-11-24T17:01:04.186Z,100201.88
2022-11-24T17:03:31.054Z,100186.19
2022-11-24T17:05:58.946Z,100177.03
2022-11-24T17:08:25.504Z,100188.06
2022-11-24T17:10:52.419Z,100185.22
2022-11-24T17:13:18.905Z,100183.03
2022-11-24T17:15:52.594Z,100202.06
2022-11-24T17:18:25.151Z,100210.69
2022-11-24T17:20:52.275Z,100208.03
2022-11-24T17:23:18.832Z,100212.22
2022-11-24T17:25:45.307Z,100215.91
2022-11-24T17:28:11.771Z,100203.91
2022-11-24T17:30:38.248Z,100205.66
2022-11-24T17:33:06.523Z,100215.03
2022-11-24T17:35:34.686Z,100222.84
2022-11-24T17:38:01.193Z,100216.47
2022-11-24T17:40:29.227Z,100223.78
2022-11-24T17:42:57.665Z,100221.94
2022-11-24T17:45:24.305Z,100222.06
2022-11-24T17:47:50.781Z,100216.75
2022-11-24T17:50:22.555Z,100210.38
2022-11-24T17:52:52.128Z,100219.66
2022-11-24T17:55:18.623Z,100220.59
2022-11-24T17:57:45.073Z,100227.06
2022-11-24T18:00:12.929Z,100217.66
2022-11-24T18:02:39.438Z,100231.03
2022-11-24T18:05:06.399Z,100239.50
2022-11-24T18:07:36.224Z,100240.78
2022-11-24T18:10:02.862Z,100230.75
2022-11-24T18:12:29.397Z,100232.75
2022-11-24T18:14:55.883Z,100232.50
2022-11-24T18:17:22.514Z,100230.69
2022-11-24T18:19:48.989Z,100231.81
2022-11-24T18:22:16.077Z,100224.47
2022-11-24T18:24:44.010Z,100221.94
2022-11-24T18:27:10.443Z,100220.56
2022-11-24T18:29:36.898Z,100219.38
2022-11-24T18:32:03.703Z,100221.34
2022-11-24T18:34:30.273Z,100222.78
2022-11-24T18:36:56.761Z,100227.28
2022-11-24T18:39:23.272Z,100224.63
2022-11-24T18:41:51.101Z,100219.13
2022-11-24T18:44:17.676Z,100219.31
2022-11-24T18:46:44.221Z,100215.88
2022-11-24T18:49:10.657Z,100222.78
2022-11-24T18:51:37.121Z,100224.75
2022-11-24T18:54:04.121Z,100217.47
2022-11-24T18:56:30.696Z,100219.59
2022-11-24T18:58:58.512Z,100206.22
2022-11-24T19:01:27.022Z,100224.00
2022-11-24T19:03:55.049Z,100218.13
2022-11-24T19:06:23.704Z,100209.78
2022-11-24T19:08:53.957Z,100219.28
2022-11-24T19:11:22.800Z,100220.41
2022-11-24T19:13:49.777Z,100224.13
2022-11-24T19:16:18.966Z,100221.00
2022-11-24T19:18:48.903Z,100211.22
2022-11-24T19:21:20.268Z,100217.97
2022-11-24T19:23:46.811Z,100205.13
2022-11-24T19:26:14.802Z,100212.69
2022-11-24T19:28:41.493Z,100199.94
2022-11-24T19:31:11.302Z,100203.75
2022-11-24T19:33:39.505Z,100199.34
2022-11-24T19:36:08.061Z,100196.47
2022-11-24T19:38:35.108Z,100205.56
2022-11-24T19:41:02.838Z,100214.09
2022-11-24T19:43:30.401Z,100206.59
2022-11-24T19:46:00.647Z,100194.31
2022-11-24T19:48:30.569Z,100200.72
2022-11-24T19:51:06.642Z,100193.69
2022-11-24T19:53:33.729Z,100202.69
2022-11-24T19:56:03.345Z,100183.72
2022-11-24T19:58:30.029Z,100200.16
2022-11-24T20:00:56.638Z,100198.03
2022-11-24T20:03:23.193Z,100197.72
2022-11-24T20:05:54.715Z,100202.91
2022-11-24T20:08:22.558Z,100205.25
2022-11-24T20:10:49.050Z,100193.53
2022-11-24T20:13:15.493Z,100212.41
2022-11-24T20:15:41.941Z,100217.44
2022-11-24T20:18:08.397Z,100216.78
2022-11-24T20:20:34.859Z,100212.13
2022-11-24T20:23:01.306Z,100218.56
2022-11-24T20:25:29.114Z,100210.88
2022-11-24T20:27:55.557Z,100215.69
2022-11-24T20:30:22.001Z,100198.00
2022-11-24T20:32:48.484Z,100211.28
2022-11-24T20:35:18.180Z,100215.53
2022-11-24T20:37:45.100Z,100218.34
2022-11-24T20:40:12.029Z,100220.63
2022-11-24T20:42:39.817Z,100211.25
2022-11-24T20:45:07.237Z,100208.34
2022-11-24T20:47:33.816Z,100213.38
2022-11-24T20:50:00.271Z,100203.06
2022-11-24T20:52:26.787Z,100210.03
2022-11-24T20:54:53.292Z,100197.59
2022-11-24T20:57:19.827Z,100205.00
2022-11-24T20:59:47.593Z,100203.06
2022-11-24T21:02:14.119Z,100213.69
2022-11-24T21:04:40.670Z,100208.09
2022-11-24T21:07:07.145Z,100202.25
2022-11-24T21:09:33.634Z,100195.81
2022-11-24T21:12:00.114Z,100212.75
2022-11-24T21:14:30.040Z,100213.41
2022-11-24T21:17:00.283Z,100215.69
2022-11-24T21:19:26.829Z,100210.63
2022-11-24T21:21:53.297Z,100203.09
2022-11-24T21:24:19.786Z,100179.34
2022-11-24T21:26:46.696Z,100204.78
2022-11-24T21:29:14.276Z,100218.31
2022-11-24T21:31:41.441Z,100206.72
2022-11-24T21:34:09.493Z,100220.72
2022-11-24T21:36:36.402Z,100212.19
2022-11-24T21:39:03.942Z,100220.56
2022-11-24T21:41:33.385Z,100210.63
2022-11-24T21:44:00.233Z,100208.13
2022-11-24T21:46:28.690Z,100198.34
2022-11-24T21:48:55.284Z,100188.72
2022-11-24T21:51:23.396Z,100201.97
2022-11-24T21:53:49.925Z,100216.50
2022-11-24T21:56:18.496Z,100214.69
2022-11-24T21:58:45.841Z,100202.13
2022-11-24T22:01:12.869Z,100207.00
2022-11-24T22:03:39.379Z,100201.84
2022-11-24T22:06:06.590Z,100188.97
2022-11-24T22:08:34.600Z,100192.44
2022-11-24T22:11:02.080Z,100190.22
2022-11-24T22:13:28.760Z,100193.44
2022-11-24T22:16:00.218Z,100185.88
2022-11-24T22:18:30.355Z,100183.38
2022-11-24T22:20:56.782Z,100176.94
2022-11-24T22:23:23.455Z,100172.19
2022-11-24T22:25:51.250Z,100177.78
2022-11-24T22:28:17.844Z,100173.88
2022-11-24T22:30:44.526Z,100178.22
2022-11-24T22:33:10.995Z,100177.91
2022-11-24T22:35:37.410Z,100178.72
2022-11-24T22:38:03.944Z,100170.31
2022-11-24T22:40:30.410Z,100164.88
2022-11-24T22:42:59.102Z,100165.88
2022-11-24T22:45:25.631Z,100165.19
2022-11-24T22:47:53.716Z,100164.09
2022-11-24T22:50:20.174Z,100146.50
2022-11-24T22:52:46.675Z,100159.47
2022-11-24T22:55:13.378Z,100153.78
2022-11-24T22:57:39.842Z,100147.34
2022-11-24T23:00:09.442Z,100156.44
2022-11-24T23:02:35.958Z,100154.06
2022-11-24T23:05:02.515Z,100148.06
2022-11-24T23:07:29.043Z,100146.78
2022-11-24T23:09:55.590Z,100149.56
2022-11-24T23:12:22.388Z,100154.31
2022-11-24T23:14:51.959Z,100157.38
2022-11-24T23:17:19.843Z,100138.78
2022-11-24T23:19:46.351Z,100159.59
2022-11-24T23:22:12.815Z,100148.28
2022-11-24T23:24:39.322Z,100157.19
2022-11-24T23:27:05.803Z,100157.19
2022-11-24T23:29:32.235Z,100149.06
2022-11-24T23:31:58.726Z,100163.88
2022-11-24T23:34:26.586Z,100163.22
2022-11-24T23:36:53.047Z,100158.19
2022-11-24T23:39:19.520Z,100165.88
2022-11-24T23:41:45.924Z,100152.03
2022-11-24T23:44:12.437Z,100151.91
2022-11-24T23:46:38.963Z,100156.66
2022-11-24T23:49:05.444Z,100139.34
2022-11-24T23:51:33.647Z,100149.28
2022-11-24T23:54:00.578Z,100151.50
2022-11-24T23:56:28.678Z,100149.13
2022-11-24T23:58:55.117Z,100148.16
